Time;durP1;ratioP1;P1;durP2;ratioP2;P2;SDS_P1;SDS_P2;PMS_P1;PMS_P2;Temp;Humidity;BMP_temperature;BMP_pressure;BME280_temperature;BME280_humidity;BME280_pressure;Samples;Min_cycle;Max_cycle;Signal;HPM_P1;HPM_P2
2022/09/13 00:02:40;;;;;;;6.77;3.70;;;;;;;16.56;81.52;99349.41;12209353;19;20024;-78
2022/09/13 00:06:42;;;;;;;7.40;3.40;;;;;;;16.51;82.21;99343.94;12179208;19;20014;-78
2022/09/13 00:10:45;;;;;;;5.23;3.70;;;;;;;16.46;82.40;99318.16;12208717;19;20078;-78
2022/09/13 00:14:54;;;;;;;7.60;3.63;;;;;;;16.42;83.17;99312.38;12200196;19;20015;-78
2022/09/13 00:18:58;;;;;;;4.82;3.03;;;;;;;16.39;83.41;99319.38;12185151;19;20015;-78
2022/09/13 00:23:01;;;;;;;5.20;3.58;;;;;;;16.32;83.41;99318.88;12208068;19;20015;-79
2022/09/13 00:27:04;;;;;;;5.32;3.40;;;;;;;16.28;83.74;99317.03;12181964;19;20475;-79
2022/09/13 00:31:12;;;;;;;6.70;3.50;;;;;;;16.21;84.91;99322.97;12206742;19;20018;-79
2022/09/13 00:35:14;;;;;;;8.15;4.22;;;;;;;16.16;85.42;99317.47;12204691;19;20010;-81
2022/09/13 00:39:19;;;;;;;9.77;4.03;;;;;;;16.11;86.71;99301.66;12185105;19;20017;-80
2022/09/13 00:43:46;;;;;;;8.35;3.75;;;;;;;16.08;87.97;99312.56;12201573;19;20023;-79
2022/09/13 00:47:58;;;;;;;7.80;4.60;;;;;;;16.03;88.24;99287.63;12206452;19;20035;-79
2022/09/13 00:52:12;;;;;;;6.38;4.38;;;;;;;16.02;89.10;99294.31;12183211;19;20341;-80
2022/09/13 00:56:20;;;;;;;6.18;4.10;;;;;;;15.99;89.56;99292.13;12202938;19;20011;-79
2022/09/13 01:00:25;;;;;;;8.52;3.90;;;;;;;15.95;90.29;99306.63;12184622;19;20006;-80
2022/09/13 01:04:29;;;;;;;;;;;;;;;15.91;90.58;99299.16;12204547;19;20025;-80
2022/09/13 01:08:34;;;;;;;5.85;3.72;;;;;;;15.86;90.29;99293.69;12205838;19;19911;-80
2022/09/13 01:12:47;;;;;;;6.80;4.20;;;;;;;15.81;91.71;99279.84;12184126;19;20742;-80
2022/09/13 01:16:51;;;;;;;9.15;4.55;;;;;;;15.78;93.01;99264.59;12203171;19;20500;-79
2022/09/13 01:21:06;;;;;;;7.63;4.40;;;;;;;15.78;93.45;99280.44;12204236;19;20002;-79
2022/09/13 01:25:34;;;;;;;9.98;4.13;;;;;;;15.76;93.33;99269.63;12179105;19;20038;-80
2022/09/13 01:29:43;;;;;;;6.38;4.18;;;;;;;15.73;93.07;99278.56;12212193;19;20794;-80
2022/09/13 01:34:12;;;;;;;6.60;4.10;;;;;;;15.71;93.62;99286.38;12195996;19;20025;-80
2022/09/13 01:38:23;;;;;;;13.40;5.60;;;;;;;15.69;93.41;99295.00;12215301;19;20701;-79
2022/09/13 01:42:56;;;;;;;6.68;4.18;;;;;;;15.66;93.67;99319.72;12192696;19;20014;-79
2022/09/13 01:47:24;;;;;;;8.05;3.83;;;;;;;15.61;94.19;99298.38;12209425;19;20011;-80
2022/09/13 01:51:45;;;;;;;7.35;4.13;;;;;;;15.61;94.54;99264.22;12190757;19;20034;-79
2022/09/13 01:55:58;;;;;;;9.70;4.22;;;;;;;15.60;94.61;99251.47;12214600;19;20078;-79
2022/09/13 02:00:06;;;;;;;9.48;4.25;;;;;;;15.59;94.40;99249.84;12191915;19;20007;-80
2022/09/13 02:04:22;;;;;;;5.82;3.95;;;;;;;15.57;94.71;99257.63;12213358;19;20023;-79
2022/09/13 02:08:41;;;;;;;7.65;3.85;;;;;;;15.56;94.54;99255.97;12232207;19;20006;-78
2022/09/13 02:12:47;;;;;;;9.32;3.92;;;;;;;15.53;94.25;99264.88;12239640;19;20011;-79
2022/09/13 02:17:14;;;;;;;6.53;3.92;;;;;;;15.47;94.34;99292.72;12243087;19;20543;-81
2022/09/13 02:21:21;;;;;;;5.40;4.00;;;;;;;15.35;94.80;99319.22;12195372;19;20011;-80
2022/09/13 02:25:31;;;;;;;6.40;4.03;;;;;;;15.20;96.07;99286.88;12212423;19;20007;-80
2022/09/13 02:29:40;;;;;;;7.88;4.25;;;;;;;15.15;96.74;99306.41;12216762;19;20370;-80
2022/09/13 02:33:52;;;;;;;7.35;4.50;;;;;;;15.13;97.69;99315.00;12185446;19;20026;-79
2022/09/13 02:38:03;;;;;;;8.65;4.68;;;;;;;15.14;97.44;99326.91;12210180;19;20007;-80
2022/09/13 02:42:08;;;;;;;8.98;4.07;;;;;;;15.17;97.61;99334.66;12194075;19;20002;-80
2022/09/13 02:46:28;;;;;;;6.53;3.78;;;;;;;15.16;97.89;99336.63;12214521;19;20666;-79
2022/09/13 02:50:55;;;;;;;5.50;4.45;;;;;;;15.15;98.48;99328.59;12212344;19;20367;-79
2022/09/13 02:55:18;;;;;;;7.10;4.47;;;;;;;15.13;97.89;99325.28;12191317;19;20396;-80
2022/09/13 02:59:22;;;;;;;;;;;;;;;15.07;98.62;99332.81;12215820;19;20362;-79
2022/09/13 03:03:24;;;;;;;6.70;3.65;;;;;;;15.03;97.97;99329.81;12191156;19;19918;-79
2022/09/13 03:07:39;;;;;;;7.07;4.53;;;;;;;15.03;97.97;99324.25;12212639;19;20510;-79
2022/09/13 03:12:05;;;;;;;7.80;4.93;;;;;;;15.07;98.93;99323.66;12211976;19;20019;-79
2022/09/13 03:17:03;;;;;;;8.27;4.75;;;;;;;15.10;98.57;99332.22;12189322;19;20010;-80
2022/09/13 03:21:28;;;;;;;7.93;5.65;;;;;;;15.07;99.00;99309.78;12185106;19;20452;-80
2022/09/13 03:25:54;;;;;;;9.93;5.45;;;;;;;15.09;99.02;99302.00;12208965;19;20011;-79
2022/09/13 03:30:18;;;;;;;9.32;5.38;;;;;;;15.12;99.43;99296.69;12217708;19;20014;-79
2022/09/13 03:34:50;;;;;;;10.57;5.00;;;;;;;15.16;100.00;99289.44;12193398;19;20495;-79
2022/09/13 03:39:12;;;;;;;10.52;5.57;;;;;;;15.21;99.33;99272.75;12211163;19;20019;-79
2022/09/13 03:43:25;;;;;;;10.43;5.22;;;;;;;15.28;99.38;99272.38;12187294;19;20006;-80
2022/09/13 03:47:32;;;;;;;9.63;5.40;;;;;;;15.33;99.28;99275.13;12209530;19;20010;-80
2022/09/13 03:51:37;;;;;;;10.57;4.85;;;;;;;15.38;98.96;99282.56;12184029;19;21872;-79
2022/09/13 03:55:51;;;;;;;6.82;4.65;;;;;;;15.45;99.23;99266.38;12207485;19;20014;-79
2022/09/13 03:59:56;;;;;;;6.60;4.82;;;;;;;15.49;99.52;99272.97;12209508;19;20086;-80
2022/09/13 04:03:58;;;;;;;12.35;5.65;;;;;;;15.51;99.74;99262.41;12185159;19;20014;-79
2022/09/13 04:08:02;;;;;;;6.30;4.60;;;;;;;15.48;100.00;99263.81;12208548;19;20011;-80
2022/09/13 04:12:10;;;;;;;7.85;4.72;;;;;;;15.48;100.00;99247.16;12190412;19;20315;-80
2022/09/13 04:16:13;;;;;;;10.00;5.82;;;;;;;15.53;100.00;99248.22;12208861;19;20006;-81
2022/09/13 04:20:19;;;;;;;6.88;5.15;;;;;;;15.56;100.00;99251.25;12208302;19;20014;-80
2022/09/13 04:24:27;;;;;;;7.95;5.18;;;;;;;15.54;100.00;99247.13;12188021;19;20017;-80
2022/09/13 04:28:30;;;;;;;7.25;4.70;;;;;;;15.55;100.00;99254.31;12208382;19;20038;-79
2022/09/13 04:32:35;;;;;;;11.33;5.30;;;;;;;15.56;100.00;99251.25;12208098;19;20002;-79
2022/09/13 04:36:38;;;;;;;8.70;5.20;;;;;;;15.61;100.00;99247.56;12182711;19;20467;-80
2022/09/13 04:40:43;;;;;;;10.45;5.53;;;;;;;15.65;100.00;99254.19;12207357;19;20014;-79
2022/09/13 04:44:48;;;;;;;8.10;5.32;;;;;;;15.67;100.00;99255.56;12207057;19;20411;-79
2022/09/13 04:48:54;;;;;;;8.05;5.32;;;;;;;15.70;99.71;99265.25;12187625;19;20010;-79
2022/09/13 04:52:59;;;;;;;7.25;5.13;;;;;;;15.71;100.00;99264.97;12207821;19;20011;-79
2022/09/13 04:57:07;;;;;;;8.95;5.70;;;;;;;15.71;100.00;99270.53;12180349;19;20011;-78
2022/09/13 05:01:09;;;;;;;10.10;5.07;;;;;;;15.64;100.00;99269.19;12205644;19;20863;-79
2022/09/13 05:05:15;;;;;;;7.93;5.60;;;;;;;15.58;100.00;99290.63;12203301;19;20581;-79
2022/09/13 05:09:21;;;;;;;8.02;5.55;;;;;;;15.59;100.00;99294.28;12184419;19;20081;-79
2022/09/13 05:13:31;;;;;;;7.45;4.93;;;;;;;15.58;100.00;99304.53;12211063;19;20003;-80
2022/09/13 05:17:34;;;;;;;9.82;5.32;;;;;;;15.61;100.00;99303.94;12207599;19;20027;-78
2022/09/13 05:21:37;;;;;;;7.63;5.70;;;;;;;15.64;100.00;99300.56;12184325;19;20472;-79
2022/09/13 05:25:46;;;;;;;8.27;5.20;;;;;;;15.69;100.00;99300.53;12204348;19;20010;-79
2022/09/13 05:29:51;;;;;;;10.63;6.70;;;;;;;15.77;100.00;99312.16;12200943;19;20015;-79
2022/09/13 05:34:02;;;;;;;15.48;9.45;;;;;;;15.80;100.00;99306.81;12182593;19;20082;-79
2022/09/13 05:38:07;;;;;;;13.05;8.10;;;;;;;15.86;100.00;99313.13;12207697;19;20409;-78
2022/09/13 05:42:14;;;;;;;12.93;7.15;;;;;;;15.92;100.00;99310.00;12185140;19;20003;-79
2022/09/13 05:46:21;;;;;;;14.48;8.77;;;;;;;15.99;100.00;99320.75;12202575;19;20015;-79
2022/09/13 05:50:24;;;;;;;12.60;8.45;;;;;;;16.05;99.72;99313.97;12220842;19;20011;-79
2022/09/13 05:54:47;;;;;;;9.70;6.63;;;;;;;16.09;100.00;99322.53;12183493;19;20015;-80
2022/09/13 05:58:51;;;;;;;10.82;6.75;;;;;;;16.15;100.00;99329.69;12196245;19;20007;-78
2022/09/13 06:02:54;;;;;;;11.55;6.53;;;;;;;16.21;100.00;99331.31;12200033;19;20478;-80
2022/09/13 06:07:03;;;;;;;13.07;6.88;;;;;;;16.29;100.00;99319.50;12181721;19;20010;-80
2022/09/13 06:11:08;;;;;;;10.38;6.10;;;;;;;16.33;100.00;99312.22;12205349;19;20014;-80
2022/09/13 06:15:10;;;;;;;11.15;6.60;;;;;;;16.35;100.00;99301.59;12196529;19;20010;-81
2022/09/13 06:19:12;;;;;;;12.52;5.95;;;;;;;16.38;99.12;99306.56;12208470;19;20499;-81
2022/09/13 06:23:15;;;;;;;9.75;5.25;;;;;;;16.46;97.49;99295.91;12231913;19;20025;-81
2022/09/13 06:27:17;;;;;;;7.68;5.45;;;;;;;16.51;96.96;99299.44;12204069;19;20025;-79
2022/09/13 06:31:24;;;;;;;6.88;5.03;;;;;;;16.56;97.07;99302.13;12223954;19;20042;-81
2022/09/13 06:35:32;;;;;;;7.20;5.15;;;;;;;16.59;96.83;99312.66;12218343;19;20015;-81
2022/09/13 06:39:38;;;;;;;8.48;5.15;;;;;;;16.64;97.10;99323.69;12198975;19;20006;-82
2022/09/13 06:43:41;;;;;;;10.25;5.57;;;;;;;16.64;97.01;99315.34;12219873;19;20010;-80
2022/09/13 06:47:43;;;;;;;;;;;;;;;16.66;97.90;99315.06;12219339;19;20082;-82
2022/09/13 06:51:48;;;;;;;10.43;5.95;;;;;;;16.73;97.11;99311.91;12195801;19;19962;-82
2022/09/13 06:56:00;;;;;;;12.93;6.20;;;;;;;16.73;96.63;99298.81;12212708;19;20082;-82
2022/09/13 07:00:03;;;;;;;11.65;5.85;;;;;;;16.75;96.23;99310.47;12199457;19;20014;-81
2022/09/13 07:04:18;;;;;;;9.85;5.85;;;;;;;16.84;96.26;99333.72;12230265;19;19998;-82
2022/09/13 07:08:26;;;;;;;8.93;5.38;;;;;;;16.99;95.57;99337.38;12264928;19;20015;-80
2022/09/13 07:12:28;;;;;;;8.85;6.05;;;;;;;17.14;94.78;99339.09;12248774;19;20014;-80
2022/09/13 07:16:36;;;;;;;11.18;5.75;;;;;;;17.27;93.72;99355.00;12269538;19;20019;-80
2022/09/13 07:20:38;;;;;;;11.52;6.35;;;;;;;17.43;93.12;99363.88;12222697;19;20006;-82
2022/09/13 07:24:41;;;;;;;11.85;7.55;;;;;;;17.40;91.63;99375.66;12195168;19;20018;-81
2022/09/13 07:28:46;;;;;;;9.85;6.65;;;;;;;17.38;92.22;99373.19;12216605;19;20013;-81
2022/09/13 07:32:48;;;;;;;12.70;7.53;;;;;;;17.37;93.11;99370.69;12212340;19;20018;-82
2022/09/13 07:36:51;;;;;;;11.48;7.35;;;;;;;17.44;92.73;99365.56;12190162;19;20014;-82
2022/09/13 07:41:00;;;;;;;15.32;7.28;;;;;;;17.65;91.90;99364.03;12217980;19;20471;-81
2022/09/13 07:45:03;;;;;;;12.18;8.00;;;;;;;17.71;91.58;99362.00;12195352;19;20022;-82
2022/09/13 07:49:12;;;;;;;13.80;8.73;;;;;;;17.77;91.22;99342.09;12218137;19;20009;-82
2022/09/13 07:53:15;;;;;;;13.63;8.30;;;;;;;17.75;92.33;99335.16;12215394;19;20014;-81
2022/09/13 07:57:21;;;;;;;12.02;8.32;;;;;;;17.77;92.59;99328.16;12192572;19;20026;-82
2022/09/13 08:01:35;;;;;;;13.38;8.40;;;;;;;17.69;92.78;99306.56;12213899;19;20040;-82
2022/09/13 08:05:39;;;;;;;14.27;8.10;;;;;;;17.75;94.80;99277.44;12219236;19;20010;-80
2022/09/13 08:09:44;;;;;;;11.23;8.13;;;;;;;17.90;94.89;99272.72;12244979;19;20042;-80
2022/09/13 08:13:50;;;;;;;13.38;8.73;;;;;;;18.11;94.41;99279.50;12261244;19;20011;-79
2022/09/13 08:17:58;;;;;;;16.00;9.15;;;;;;;18.30;93.93;99289.72;12222921;19;20010;-83
2022/09/13 08:22:00;;;;;;;14.38;9.40;;;;;;;18.47;93.26;99287.06;12195442;19;20015;-82
2022/09/13 08:26:03;;;;;;;16.20;9.98;;;;;;;18.58;92.27;99282.88;12209236;19;20042;-82
2022/09/13 08:30:05;;;;;;;;;;;;;;;18.75;92.14;99275.84;12191344;19;20037;-82
2022/09/13 08:34:17;;;;;;;13.07;8.80;;;;;;;18.81;92.17;99288.53;12210929;19;19911;-83
2022/09/13 08:38:19;;;;;;;16.33;9.20;;;;;;;19.04;90.65;99290.16;12214337;19;20010;-81
2022/09/13 08:42:45;;;;;;;16.25;9.05;;;;;;;19.43;89.45;99296.94;12192829;19;20041;-82
2022/09/13 08:46:48;;;;;;;13.63;8.10;;;;;;;19.75;88.08;99303.34;12211570;19;20014;-82
2022/09/13 08:51:11;;;;;;;14.10;8.00;;;;;;;19.83;87.53;99305.34;12214266;19;20027;-82
2022/09/13 08:55:24;;;;;;;11.35;7.72;;;;;;;19.80;87.06;99323.59;12188365;19;20524;-81
2022/09/13 08:59:47;;;;;;;14.85;8.18;;;;;;;19.78;86.58;99325.06;12212582;19;20011;-82
2022/09/13 09:04:11;;;;;;;16.13;8.37;;;;;;;19.70;86.59;99339.84;12187082;19;20383;-81
2022/09/13 09:08:34;;;;;;;12.85;8.07;;;;;;;19.59;86.93;99334.50;12210141;19;20445;-83
2022/09/13 09:13:06;;;;;;;13.18;8.07;;;;;;;19.42;88.44;99317.63;12186159;19;20010;-81
2022/09/13 09:17:26;;;;;;;15.82;9.27;;;;;;;19.18;90.98;99312.41;12209842;19;20010;-80
2022/09/13 09:21:30;;;;;;;16.50;9.50;;;;;;;19.17;92.64;99307.97;12188039;19;20065;-80
2022/09/13 09:25:38;;;;;;;16.13;8.55;;;;;;;19.31;93.65;99305.09;12207783;19;20371;-80
2022/09/13 09:29:45;;;;;;;18.40;9.45;;;;;;;19.40;92.85;99305.97;12209152;19;20558;-82
2022/09/13 09:34:06;;;;;;;14.70;9.38;;;;;;;19.47;93.86;99292.34;12181322;19;20018;-80
2022/09/13 09:38:35;;;;;;;13.02;9.15;;;;;;;19.70;93.52;99297.91;12206534;19;20018;-81
2022/09/13 09:42:49;;;;;;;14.25;9.98;;;;;;;19.92;92.09;99297.00;12183687;19;20010;-81
2022/09/13 09:46:59;;;;;;;12.50;8.77;;;;;;;20.03;90.59;99307.56;12207039;19;20022;-81
2022/09/13 09:51:12;;;;;;;13.30;8.70;;;;;;;20.22;90.15;99306.44;12198626;19;20003;-81
2022/09/13 09:55:27;;;;;;;14.10;8.85;;;;;;;20.60;88.42;99317.06;12220060;19;21271;-82
2022/09/13 09:59:32;;;;;;;13.20;8.77;;;;;;;20.82;87.43;99319.72;12225242;19;20463;-83
2022/09/13 10:03:42;;;;;;;12.70;8.80;;;;;;;20.93;86.23;99326.59;12200565;19;20006;-79
2022/09/13 10:07:54;;;;;;;17.55;9.90;;;;;;;20.84;86.66;99327.75;12226153;19;20006;-82
2022/09/13 10:11:58;;;;;;;13.20;8.27;;;;;;;20.82;86.79;99319.72;12221590;19;20014;-82
2022/09/13 10:16:06;;;;;;;11.48;8.02;;;;;;;20.93;87.24;99318.19;12197873;19;20420;-81
2022/09/13 10:20:25;;;;;;;15.18;8.55;;;;;;;21.19;86.02;99322.94;12222353;19;20003;-82
2022/09/13 10:24:29;;;;;;;12.73;8.20;;;;;;;21.40;84.78;99328.69;12198410;19;20014;-80
2022/09/13 10:28:53;;;;;;;15.77;8.05;;;;;;;21.38;82.67;99329.03;12221309;19;20006;-81
2022/09/13 10:32:56;;;;;;;13.70;8.68;;;;;;;21.36;81.98;99313.72;12216316;19;20014;-82
2022/09/13 10:37:05;;;;;;;13.52;8.35;;;;;;;21.29;81.89;99322.59;12198664;19;20014;-82
2022/09/13 10:41:23;;;;;;;15.35;8.65;;;;;;;21.20;82.85;99304.97;12220801;19;20015;-80
2022/09/13 10:45:31;;;;;;;17.17;8.43;;;;;;;21.04;82.83;99309.47;12195650;19;20007;-82
2022/09/13 10:49:58;;;;;;;13.35;8.38;;;;;;;20.93;82.18;99309.78;12219768;19;20015;-82
2022/09/13 10:54:10;;;;;;;15.45;8.50;;;;;;;20.97;83.74;99309.13;12209491;19;20010;-82
2022/09/13 10:58:15;;;;;;;11.13;7.50;;;;;;;21.10;82.27;99303.34;12221124;19;20039;-80
2022/09/13 11:02:45;;;;;;;8.73;6.18;;;;;;;21.45;80.64;99302.50;12221906;19;20033;-81
2022/09/13 11:06:52;;;;;;;12.63;6.45;;;;;;;21.83;78.69;99306.13;12197307;19;20018;-81
2022/09/13 11:11:27;;;;;;;12.23;6.47;;;;;;;22.21;76.78;99310.88;12220980;19;20006;-82
2022/09/13 11:15:39;;;;;;;10.30;5.72;;;;;;;22.53;76.39;99314.97;12197061;19;20503;-81
2022/09/13 11:20:15;;;;;;;7.93;5.87;;;;;;;22.60;74.82;99300.38;12222745;19;20515;-81
2022/09/13 11:24:44;;;;;;;10.40;5.78;;;;;;;22.52;75.53;99301.28;12202795;19;20090;-81
2022/09/13 11:29:24;;;;;;;8.48;5.90;;;;;;;22.44;76.63;99304.97;12224465;19;20730;-82
2022/09/13 11:33:42;;;;;;;9.73;6.50;;;;;;;22.30;76.67;99317.25;12193607;19;20066;-82
2022/09/13 11:38:15;;;;;;;13.73;7.95;;;;;;;22.34;75.40;99313.75;12218722;19;20011;-81
2022/09/13 11:42:35;;;;;;;12.48;7.80;;;;;;;22.41;74.90;99303.66;12197837;19;20017;-81
2022/09/13 11:46:58;;;;;;;12.02;6.57;;;;;;;22.61;75.80;99310.44;12219083;19;20006;-81
2022/09/13 11:51:15;;;;;;;12.50;6.63;;;;;;;22.62;75.40;99300.03;12204067;19;20007;-80
2022/09/13 11:55:29;;;;;;;9.82;7.25;;;;;;;22.57;75.68;99286.19;12221178;19;20006;-80
2022/09/13 11:59:37;;;;;;;13.18;7.78;;;;;;;22.32;76.16;99271.22;12218827;19;20007;-80
2022/09/13 12:04:04;;;;;;;11.63;7.72;;;;;;;22.12;79.10;99262.38;12193888;19;20010;-80
2022/09/13 12:08:08;;;;;;;14.65;8.50;;;;;;;22.03;80.20;99256.00;12214497;19;20031;-80
2022/09/13 12:12:12;;;;;;;12.68;7.75;;;;;;;22.13;82.13;99249.16;12190161;19;20014;-79
2022/09/13 12:16:37;;;;;;;11.32;7.40;;;;;;;22.29;83.92;99248.25;12212696;19;20003;-80
2022/09/13 12:20:45;;;;;;;24.25;8.88;;;;;;;22.43;83.54;99231.16;12216194;19;20007;-81
2022/09/13 12:24:52;;;;;;;13.35;7.85;;;;;;;22.52;82.09;99236.69;12194180;19;20010;-80
2022/09/13 12:29:04;;;;;;;16.80;9.55;;;;;;;22.72;80.31;99227.41;12222940;19;20031;-80
2022/09/13 12:33:06;;;;;;;14.77;8.85;;;;;;;22.91;80.87;99226.91;12185517;19;20456;-80
2022/09/13 12:37:25;;;;;;;14.30;8.70;;;;;;;22.89;78.78;99220.78;12203957;19;20480;-81
2022/09/13 12:41:46;;;;;;;15.52;9.63;;;;;;;22.81;77.84;99235.75;12210873;19;20014;-80
2022/09/13 12:45:50;;;;;;;9.60;7.45;;;;;;;22.79;78.20;99237.28;12188433;19;20014;-80
2022/09/13 12:49:52;;;;;;;11.80;7.90;;;;;;;22.77;78.97;99225.56;12209736;19;20015;-81
2022/09/13 12:54:08;;;;;;;11.93;8.32;;;;;;;22.69;79.66;99225.28;12211945;19;20018;-80
2022/09/13 12:58:47;;;;;;;11.00;7.25;;;;;;;22.71;79.96;99233.38;12185216;19;20049;-81
2022/09/13 13:02:48;;;;;;;11.52;7.97;;;;;;;22.86;79.79;99234.72;12210733;19;20015;-81
2022/09/13 13:06:59;;;;;;;11.38;7.32;;;;;;;23.01;78.54;99230.47;12185906;19;20010;-80
2022/09/13 13:11:10;;;;;;;11.88;8.35;;;;;;;23.26;76.67;99220.09;12208762;19;20010;-80
2022/09/13 13:15:14;;;;;;;13.63;8.07;;;;;;;23.51;76.29;99218.94;12185419;19;20033;-80
2022/09/13 13:19:31;;;;;;;14.38;8.18;;;;;;;23.87;74.23;99209.72;12208665;19;20050;-81
2022/09/13 13:23:37;;;;;;;12.32;8.13;;;;;;;24.32;72.92;99222.75;12214686;19;20018;-81
2022/09/13 13:27:41;;;;;;;12.60;8.43;;;;;;;24.70;70.61;99218.66;12201789;19;20363;-81
2022/09/13 13:32:06;;;;;;;15.00;9.05;;;;;;;24.66;69.69;99222.53;12225975;19;20006;-82
2022/09/13 13:36:25;;;;;;;12.00;7.60;;;;;;;24.48;69.75;99208.78;12196758;19;20013;-81
2022/09/13 13:40:28;;;;;;;14.38;7.57;;;;;;;24.36;70.51;99203.16;12225141;19;20068;-81
2022/09/13 13:44:30;;;;;;;9.75;7.00;;;;;;;24.13;71.28;99190.81;12219883;19;20018;-81
2022/09/13 13:48:37;;;;;;;12.60;8.43;;;;;;;23.86;70.74;99185.56;12202477;19;20415;-81
2022/09/13 13:52:51;;;;;;;11.23;7.55;;;;;;;23.77;71.76;99182.06;12223281;19;20027;-81
2022/09/13 13:56:53;;;;;;;12.68;7.72;;;;;;;23.75;72.49;99180.78;12219652;19;20033;-81
2022/09/13 14:00:59;;;;;;;11.23;7.30;;;;;;;23.80;73.94;99180.53;12200985;19;20031;-81
2022/09/13 14:05:21;;;;;;;10.18;7.85;;;;;;;23.93;75.42;99167.28;12213692;19;20010;-81
2022/09/13 14:09:54;;;;;;;16.07;8.60;;;;;;;23.93;73.33;99168.09;12224648;19;20031;-80
2022/09/13 14:14:05;;;;;;;11.85;7.80;;;;;;;23.95;73.57;99148.88;12245501;19;20336;-82
2022/09/13 14:18:06;;;;;;;17.08;8.27;;;;;;;24.10;72.97;99156.56;12204752;19;20010;-82
2022/09/13 14:22:17;;;;;;;10.32;6.72;;;;;;;24.25;71.83;99151.34;12224133;19;20163;-81
2022/09/13 14:26:20;;;;;;;11.27;7.15;;;;;;;24.16;72.23;99154.31;12218365;19;20054;-81
2022/09/13 14:30:28;;;;;;;11.43;6.38;;;;;;;24.22;72.26;99150.06;12203020;19;20015;-81
2022/09/13 14:34:36;;;;;;;13.63;6.90;;;;;;;24.25;72.56;99157.00;12218994;19;20006;-81
2022/09/13 14:38:47;;;;;;;9.60;6.32;;;;;;;24.17;72.60;99153.13;12215086;19;20038;-81
2022/09/13 14:42:55;;;;;;;11.45;6.53;;;;;;;24.00;73.18;99154.22;12199878;19;20019;-81
2022/09/13 14:47:14;;;;;;;9.52;6.63;;;;;;;23.95;72.20;99137.59;12218841;19;20011;-81
2022/09/13 14:51:24;;;;;;;11.95;7.38;;;;;;;23.94;71.97;99123.88;12199568;19;20683;-81
2022/09/13 14:55:40;;;;;;;11.95;6.30;;;;;;;23.99;73.56;99120.81;12217285;19;20018;-79
2022/09/13 14:59:50;;;;;;;10.00;6.10;;;;;;;24.04;73.60;99117.78;12220472;19;20011;-80
2022/09/13 15:03:56;;;;;;;8.25;5.95;;;;;;;24.07;72.66;99112.25;12188743;19;20014;-80
2022/09/13 15:07:58;;;;;;;9.30;5.78;;;;;;;24.00;73.08;99111.19;12221937;19;20476;-80
2022/09/13 15:12:01;;;;;;;8.60;6.05;;;;;;;23.90;73.99;99106.09;12220155;19;20014;-80
2022/09/13 15:16:24;;;;;;;9.15;6.18;;;;;;;23.81;73.89;99097.78;12196086;19;20364;-80
2022/09/13 15:20:30;;;;;;;10.00;6.22;;;;;;;23.69;73.44;99098.59;12219637;19;20014;-79
2022/09/13 15:24:33;;;;;;;10.60;5.93;;;;;;;23.61;73.84;99100.34;12195531;19;20114;-80
2022/09/13 15:28:43;;;;;;;11.65;6.00;;;;;;;23.48;74.99;99098.75;12217798;19;20392;-79
2022/09/13 15:32:45;;;;;;;9.55;5.22;;;;;;;23.41;75.64;99092.91;12216979;19;20006;-79
2022/09/13 15:37:07;;;;;;;8.38;5.65;;;;;;;23.38;76.94;99076.72;12189955;19;20011;-79
2022/09/13 15:41:17;;;;;;;8.73;5.93;;;;;;;23.22;78.12;99087.88;12215875;19;20507;-80
2022/09/13 15:45:21;;;;;;;12.82;6.97;;;;;;;23.08;80.29;99081.78;12192009;19;20007;-80
2022/09/13 15:49:26;;;;;;;8.68;5.65;;;;;;;22.96;81.70;99071.34;12215035;19;20086;-80
2022/09/13 15:53:27;;;;;;;8.85;5.97;;;;;;;22.87;82.96;99077.03;12214703;19;20018;-80
2022/09/13 15:57:29;;;;;;;9.10;5.68;;;;;;;22.75;82.83;99074.22;12188225;19;20085;-80
2022/09/13 16:01:31;;;;;;;9.43;6.72;;;;;;;22.64;83.63;99068.28;12208327;19;20095;-80
2022/09/13 16:05:34;;;;;;;9.25;6.10;;;;;;;22.46;84.51;99073.25;12211219;19;20041;-80
2022/09/13 16:09:37;;;;;;;12.00;6.55;;;;;;;22.36;85.42;99072.88;12192287;19;20030;-80
2022/09/13 16:13:39;;;;;;;9.25;6.45;;;;;;;22.26;86.37;99062.91;12208508;19;20090;-80
2022/09/13 16:17:42;;;;;;;8.63;6.20;;;;;;;22.22;87.19;99067.56;12217566;19;20344;-81
2022/09/13 16:21:45;;;;;;;8.93;6.50;;;;;;;22.13;88.39;99063.97;12229218;19;20042;-80
2022/09/13 16:25:52;;;;;;;10.45;5.88;;;;;;;22.08;88.72;99053.81;12251161;19;20010;-80
2022/09/13 16:29:54;;;;;;;9.75;6.25;;;;;;;22.06;89.28;99070.16;12249787;19;20107;-80
2022/09/13 16:33:56;;;;;;;9.27;5.53;;;;;;;21.99;90.25;99069.91;12196820;19;20011;-80
2022/09/13 16:37:58;;;;;;;8.50;6.55;;;;;;;21.94;91.07;99068.13;12215073;19;20006;-80
2022/09/13 16:41:59;;;;;;;10.60;6.67;;;;;;;21.85;92.59;99067.38;12221441;19;20368;-80
2022/09/13 16:46:12;;;;;;;11.95;6.32;;;;;;;21.74;93.42;99057.72;12197702;19;20018;-80
2022/09/13 16:50:18;;;;;;;;;;;;;;;21.68;93.72;99068.34;12223605;19;20475;-81
2022/09/13 16:54:19;;;;;;;8.50;6.05;;;;;;;21.62;93.92;99055.69;12194818;19;19915;-80
2022/09/13 16:58:23;;;;;;;9.38;6.53;;;;;;;21.58;95.55;99060.34;12211592;19;20002;-81
2022/09/13 17:02:25;;;;;;;10.20;6.50;;;;;;;21.48;96.99;99063.56;12215572;19;20014;-81
2022/09/13 17:06:27;;;;;;;8.00;5.85;;;;;;;21.36;98.53;99061.50;12195574;19;20010;-80
2022/09/13 17:10:29;;;;;;;9.88;6.25;;;;;;;21.29;99.55;99059.19;12216173;19;20042;-80
2022/09/13 17:14:32;;;;;;;8.82;6.38;;;;;;;21.24;100.00;99055.75;12214316;19;20022;-80
2022/09/13 17:18:33;;;;;;;8.73;6.03;;;;;;;21.16;100.00;99068.69;12192325;19;20014;-80
2022/09/13 17:22:35;;;;;;;10.18;5.78;;;;;;;21.10;100.00;99068.03;12216438;19;20030;-81
2022/09/13 17:26:37;;;;;;;9.07;6.07;;;;;;;21.04;100.00;99068.56;12212581;19;20408;-80
2022/09/13 17:30:40;;;;;;;10.87;6.33;;;;;;;20.97;100.00;99065.47;12192621;19;20037;-80
2022/09/13 17:34:41;;;;;;;11.77;6.30;;;;;;;20.87;100.00;99075.88;12212062;19;20026;-80
2022/09/13 17:38:43;;;;;;;14.10;6.70;;;;;;;20.74;100.00;99078.94;12211003;19;20039;-80
2022/09/13 17:42:47;;;;;;;9.50;6.35;;;;;;;20.67;100.00;99085.88;12188745;19;20010;-79
2022/09/13 17:46:48;;;;;;;9.98;6.72;;;;;;;20.62;100.00;99079.63;12211787;19;20519;-80
2022/09/13 17:50:50;;;;;;;11.95;6.93;;;;;;;20.57;100.00;99085.41;12220583;19;20014;-80
2022/09/13 17:54:52;;;;;;;9.98;6.32;;;;;;;20.49;100.00;99081.44;12189155;19;20019;-79
2022/09/13 17:58:56;;;;;;;13.68;6.18;;;;;;;20.41;100.00;99077.53;12211145;19;20022;-79
2022/09/13 18:02:57;;;;;;;13.23;6.55;;;;;;;20.35;100.00;99081.66;12210924;19;20006;-80
2022/09/13 18:06:59;;;;;;;9.13;5.88;;;;;;;20.28;100.00;99078.53;12186710;19;20464;-79
2022/09/13 18:11:07;;;;;;;8.13;5.45;;;;;;;20.22;100.00;99072.28;12216843;19;20015;-79
2022/09/13 18:15:14;;;;;;;10.23;5.30;;;;;;;20.17;100.00;99063.25;12199135;19;20066;-80
2022/09/13 18:19:16;;;;;;;11.43;5.95;;;;;;;20.11;100.00;99047.78;12222407;19;20019;-80
2022/09/13 18:23:19;;;;;;;10.77;6.03;;;;;;;20.10;100.00;99049.75;12226918;19;20014;-80
2022/09/13 18:27:20;;;;;;;;;;;;;;;20.06;100.00;99043.19;12200064;19;20024;-80
2022/09/13 18:31:23;;;;;;;10.07;6.00;;;;;;;20.02;100.00;99034.66;12224097;19;19949;-82
2022/09/13 18:35:25;;;;;;;;;;;;;;;19.98;100.00;99033.66;12218849;19;20030;-81
2022/09/13 18:39:26;;;;;;;13.27;7.35;;;;;;;19.93;100.00;99045.03;12200260;19;19930;-82
2022/09/13 18:43:30;;;;;;;11.68;6.72;;;;;;;19.87;100.00;99051.94;12218991;19;20066;-80
2022/09/13 18:47:31;;;;;;;11.70;7.18;;;;;;;19.85;100.00;99050.63;12224115;19;20014;-81
2022/09/13 18:51:39;;;;;;;9.13;6.38;;;;;;;19.88;100.00;99064.75;12199942;19;20018;-82
2022/09/13 18:55:41;;;;;;;13.40;7.47;;;;;;;19.87;100.00;99082.69;12226348;19;20021;-82
2022/09/13 18:59:42;;;;;;;11.68;6.63;;;;;;;19.85;100.00;99064.59;12221702;19;20017;-82
2022/09/13 19:03:48;;;;;;;13.80;7.20;;;;;;;19.85;100.00;99073.81;12196063;19;20479;-79
2022/09/13 19:07:49;;;;;;;12.38;7.22;;;;;;;19.85;100.00;99068.22;12222844;19;20476;-81
2022/09/13 19:11:53;;;;;;;11.70;6.85;;;;;;;19.83;100.00;99062.13;12224818;19;20007;-81